sensor_id;sensor_type;location;lat;lon;timestamp;temperature;humidity
23137;DHT22;11737;50.558;7.258;2022-10-31T00:00:49;11.10;99.90
23137;DHT22;11737;50.558;7.258;2022-10-31T00:03:17;11.00;99.90
23137;DHT22;11737;50.558;7.258;2022-10-31T00:05:48;11.00;99.90
23137;DHT22;11737;50.558;7.258;2022-10-31T00:08:16;11.00;99.90
23137;DHT22;11737;50.558;7.258;2022-10-31T00:10:45;11.10;99.90
23137;DHT22;11737;50.558;7.258;2022-10-31T00:13:14;11.10;99.90
23137;DHT22;11737;50.558;7.258;2022-10-31T00:15:42;11.10;99.90
23137;DHT22;11737;50.558;7.258;2022-10-31T00:18:10;11.10;99.90
23137;DHT22;11737;50.558;7.258;2022-10-31T00:20:38;11.00;99.90
23137;DHT22;11737;50.558;7.258;2022-10-31T00:23:06;11.00;99.90
23137;DHT22;11737;50.558;7.258;2022-10-31T00:25:36;11.00;99.90
23137;DHT22;11737;50.558;7.258;2022-10-31T00:28:06;11.00;99.90
23137;DHT22;11737;50.558;7.258;2022-10-31T00:30:34;11.00;99.90
23137;DHT22;11737;50.558;7.258;2022-10-31T00:33:03;11.10;99.90
23137;DHT22;11737;50.558;7.258;2022-10-31T00:35:31;11.10;99.90
23137;DHT22;11737;50.558;7.258;2022-10-31T00:37:59;11.00;99.90
23137;DHT22;11737;50.558;7.258;2022-10-31T00:40:27;10.90;99.90
23137;DHT22;11737;50.558;7.258;2022-10-31T00:42:54;10.90;99.90
23137;DHT22;11737;50.558;7.258;2022-10-31T00:45:22;10.90;99.90
23137;DHT22;11737;50.558;7.258;2022-10-31T00:47:50;11.00;99.90
23137;DHT22;11737;50.558;7.258;2022-10-31T00:50:17;11.00;99.90
23137;DHT22;11737;50.558;7.258;2022-10-31T00:52:45;11.00;99.90
23137;DHT22;11737;50.558;7.258;2022-10-31T00:55:12;10.90;99.90
23137;DHT22;11737;50.558;7.258;2022-10-31T00:57:40;10.90;99.90
23137;DHT22;11737;50.558;7.258;2022-10-31T01:00:08;10.90;99.90
23137;DHT22;11737;50.558;7.258;2022-10-31T01:02:35;10.90;99.90
23137;DHT22;11737;50.558;7.258;2022-10-31T01:05:03;10.90;99.90
23137;DHT22;11737;50.558;7.258;2022-10-31T01:07:31;10.80;99.90
23137;DHT22;11737;50.558;7.258;2022-10-31T01:09:58;10.80;99.90
23137;DHT22;11737;50.558;7.258;2022-10-31T01:12:26;10.80;99.90
23137;DHT22;11737;50.558;7.258;2022-10-31T01:14:53;10.70;99.90
23137;DHT22;11737;50.558;7.258;2022-10-31T01:17:21;10.70;99.90
23137;DHT22;11737;50.558;7.258;2022-10-31T01:19:48;10.70;99.90
23137;DHT22;11737;50.558;7.258;2022-10-31T01:22:16;10.70;99.90
23137;DHT22;11737;50.558;7.258;2022-10-31T01:24:43;10.70;99.90
23137;DHT22;11737;50.558;7.258;2022-10-31T01:27:11;10.70;99.90
23137;DHT22;11737;50.558;7.258;2022-10-31T01:29:38;10.80;99.90
23137;DHT22;11737;50.558;7.258;2022-10-31T01:32:06;11.00;99.90
23137;DHT22;11737;50.558;7.258;2022-10-31T01:34:33;11.00;99.90
23137;DHT22;11737;50.558;7.258;2022-10-31T01:37:01;11.10;99.90
23137;DHT22;11737;50.558;7.258;2022-10-31T01:39:28;11.10;99.90
23137;DHT22;11737;50.558;7.258;2022-10-31T01:41:56;11.00;99.90
23137;DHT22;11737;50.558;7.258;2022-10-31T01:49:34;10.90;99.90
23137;DHT22;11737;50.558;7.258;2022-10-31T01:52:08;10.90;99.90
23137;DHT22;11737;50.558;7.258;2022-10-31T01:54:37;10.90;99.90
23137;DHT22;11737;50.558;7.258;2022-10-31T01:57:08;10.90;99.90
23137;DHT22;11737;50.558;7.258;2022-10-31T01:59:39;10.90;99.90
23137;DHT22;11737;50.558;7.258;2022-10-31T02:02:07;10.90;99.90
23137;DHT22;11737;50.558;7.258;2022-10-31T02:04:35;10.80;99.90
23137;DHT22;11737;50.558;7.258;2022-10-31T02:07:12;10.70;99.90
23137;DHT22;11737;50.558;7.258;2022-10-31T02:09:36;10.60;99.90
23137;DHT22;11737;50.558;7.258;2022-10-31T02:12:04;10.60;99.90
23137;DHT22;11737;50.558;7.258;2022-10-31T02:14:33;10.60;99.90
23137;DHT22;11737;50.558;7.258;2022-10-31T02:17:02;10.60;99.90
23137;DHT22;11737;50.558;7.258;2022-10-31T02:19:51;10.50;99.90
23137;DHT22;11737;50.558;7.258;2022-10-31T02:22:26;10.50;99.90
23137;DHT22;11737;50.558;7.258;2022-10-31T02:30:14;10.60;99.90
23137;DHT22;11737;50.558;7.258;2022-10-31T02:32:57;10.70;99.90
23137;DHT22;11737;50.558;7.258;2022-10-31T02:35:39;10.80;99.90
23137;DHT22;11737;50.558;7.258;2022-10-31T02:38:14;10.70;99.90
23137;DHT22;11737;50.558;7.258;2022-10-31T02:40:49;10.70;99.90
23137;DHT22;11737;50.558;7.258;2022-10-31T02:43:26;10.60;99.90
23137;DHT22;11737;50.558;7.258;2022-10-31T02:46:12;10.60;99.90
23137;DHT22;11737;50.558;7.258;2022-10-31T02:48:40;10.70;99.90
23137;DHT22;11737;50.558;7.258;2022-10-31T02:51:10;10.80;99.90
23137;DHT22;11737;50.558;7.258;2022-10-31T02:53:39;10.90;99.90
23137;DHT22;11737;50.558;7.258;2022-10-31T02:56:18;10.90;99.90
23137;DHT22;11737;50.558;7.258;2022-10-31T03:10:13;10.80;99.90
23137;DHT22;11737;50.558;7.258;2022-10-31T03:12:49;10.70;99.90
23137;DHT22;11737;50.558;7.258;2022-10-31T03:15:24;10.60;99.90
23137;DHT22;11737;50.558;7.258;2022-10-31T03:20:49;10.50;99.90
23137;DHT22;11737;50.558;7.258;2022-10-31T03:23:18;10.50;99.90
23137;DHT22;11737;50.558;7.258;2022-10-31T03:25:47;10.50;99.90
23137;DHT22;11737;50.558;7.258;2022-10-31T03:28:18;10.40;99.90
23137;DHT22;11737;50.558;7.258;2022-10-31T03:30:46;10.40;99.90
23137;DHT22;11737;50.558;7.258;2022-10-31T03:33:17;10.40;99.90
23137;DHT22;11737;50.558;7.258;2022-10-31T03:35:46;10.40;99.90
23137;DHT22;11737;50.558;7.258;2022-10-31T03:38:15;10.40;99.90
23137;DHT22;11737;50.558;7.258;2022-10-31T03:40:45;10.40;99.90
23137;DHT22;11737;50.558;7.258;2022-10-31T03:43:16;10.30;99.90
23137;DHT22;11737;50.558;7.258;2022-10-31T03:45:46;10.40;99.90
23137;DHT22;11737;50.558;7.258;2022-10-31T03:48:15;10.50;99.90
23137;DHT22;11737;50.558;7.258;2022-10-31T03:53:17;10.50;99.90
23137;DHT22;11737;50.558;7.258;2022-10-31T03:55:55;10.40;99.90
23137;DHT22;11737;50.558;7.258;2022-10-31T03:58:32;10.50;99.90
23137;DHT22;11737;50.558;7.258;2022-10-31T04:01:18;10.50;99.90
23137;DHT22;11737;50.558;7.258;2022-10-31T04:03:48;10.40;99.90
23137;DHT22;11737;50.558;7.258;2022-10-31T04:06:18;10.40;99.90
23137;DHT22;11737;50.558;7.258;2022-10-31T04:08:56;10.30;99.90
23137;DHT22;11737;50.558;7.258;2022-10-31T04:11:21;10.20;99.90
23137;DHT22;11737;50.558;7.258;2022-10-31T04:13:51;10.10;99.90
23137;DHT22;11737;50.558;7.258;2022-10-31T04:16:21;10.10;99.90
23137;DHT22;11737;50.558;7.258;2022-10-31T04:18:49;10.10;99.90
23137;DHT22;11737;50.558;7.258;2022-10-31T04:21:16;10.20;99.90
23137;DHT22;11737;50.558;7.258;2022-10-31T04:23:44;10.20;99.90
23137;DHT22;11737;50.558;7.258;2022-10-31T04:26:12;10.10;99.90
23137;DHT22;11737;50.558;7.258;2022-10-31T04:28:40;10.10;99.90
23137;DHT22;11737;50.558;7.258;2022-10-31T04:31:10;10.10;99.90
23137;DHT22;11737;50.558;7.258;2022-10-31T04:33:38;10.10;99.90
23137;DHT22;11737;50.558;7.258;2022-10-31T04:36:05;10.00;99.90
23137;DHT22;11737;50.558;7.258;2022-10-31T04:38:33;10.10;99.90
23137;DHT22;11737;50.558;7.258;2022-10-31T04:41:01;10.10;99.90
23137;DHT22;11737;50.558;7.258;2022-10-31T04:43:29;10.00;99.90
23137;DHT22;11737;50.558;7.258;2022-10-31T04:45:56;10.00;99.90
23137;DHT22;11737;50.558;7.258;2022-10-31T04:48:24;10.10;99.90
23137;DHT22;11737;50.558;7.258;2022-10-31T04:50:51;10.10;99.90
23137;DHT22;11737;50.558;7.258;2022-10-31T04:53:19;10.00;99.90
23137;DHT22;11737;50.558;7.258;2022-10-31T04:55:46;10.00;99.90
23137;DHT22;11737;50.558;7.258;2022-10-31T04:58:14;9.90;99.90
23137;DHT22;11737;50.558;7.258;2022-10-31T05:00:41;9.90;99.90
23137;DHT22;11737;50.558;7.258;2022-10-31T05:03:09;9.90;99.90
23137;DHT22;11737;50.558;7.258;2022-10-31T05:05:36;9.90;99.90
23137;DHT22;11737;50.558;7.258;2022-10-31T05:08:04;10.00;99.90
23137;DHT22;11737;50.558;7.258;2022-10-31T05:10:31;10.00;99.90
23137;DHT22;11737;50.558;7.258;2022-10-31T05:13:01;10.00;99.90
23137;DHT22;11737;50.558;7.258;2022-10-31T05:15:29;10.10;99.90
23137;DHT22;11737;50.558;7.258;2022-10-31T05:17:57;10.20;99.90
23137;DHT22;11737;50.558;7.258;2022-10-31T05:20:44;10.40;99.90
23137;DHT22;11737;50.558;7.258;2022-10-31T05:23:11;10.60;99.90
23137;DHT22;11737;50.558;7.258;2022-10-31T05:25:40;10.70;99.90
23137;DHT22;11737;50.558;7.258;2022-10-31T05:28:08;10.90;99.90
23137;DHT22;11737;50.558;7.258;2022-10-31T05:30:36;10.90;99.90
23137;DHT22;11737;50.558;7.258;2022-10-31T05:33:03;11.10;99.90
23137;DHT22;11737;50.558;7.258;2022-10-31T05:35:32;11.20;99.90
23137;DHT22;11737;50.558;7.258;2022-10-31T05:38:00;11.20;99.90
23137;DHT22;11737;50.558;7.258;2022-10-31T05:40:28;11.20;99.90
23137;DHT22;11737;50.558;7.258;2022-10-31T05:42:56;11.00;99.90
23137;DHT22;11737;50.558;7.258;2022-10-31T05:45:25;10.90;99.90
23137;DHT22;11737;50.558;7.258;2022-10-31T05:47:54;10.90;99.90
23137;DHT22;11737;50.558;7.258;2022-10-31T05:50:42;10.90;99.90
23137;DHT22;11737;50.558;7.258;2022-10-31T05:53:09;11.00;99.90
23137;DHT22;11737;50.558;7.258;2022-10-31T05:55:37;11.00;99.90
23137;DHT22;11737;50.558;7.258;2022-10-31T05:58:04;11.00;99.90
23137;DHT22;11737;50.558;7.258;2022-10-31T06:00:32;11.00;99.90
23137;DHT22;11737;50.558;7.258;2022-10-31T06:03:06;11.00;99.90
23137;DHT22;11737;50.558;7.258;2022-10-31T06:05:34;11.00;99.90
23137;DHT22;11737;50.558;7.258;2022-10-31T06:08:01;11.10;99.90
23137;DHT22;11737;50.558;7.258;2022-10-31T06:10:29;11.30;99.90
23137;DHT22;11737;50.558;7.258;2022-10-31T06:12:57;11.40;99.90
23137;DHT22;11737;50.558;7.258;2022-10-31T06:15:24;11.40;99.90
23137;DHT22;11737;50.558;7.258;2022-10-31T06:18:03;11.40;99.90
23137;DHT22;11737;50.558;7.258;2022-10-31T06:20:32;11.30;99.90
23137;DHT22;11737;50.558;7.258;2022-10-31T06:23:00;11.30;99.90
23137;DHT22;11737;50.558;7.258;2022-10-31T06:25:29;11.30;99.90
23137;DHT22;11737;50.558;7.258;2022-10-31T06:27:56;11.30;99.90
23137;DHT22;11737;50.558;7.258;2022-10-31T06:30:24;11.30;99.90
23137;DHT22;11737;50.558;7.258;2022-10-31T06:32:53;11.30;99.90
23137;DHT22;11737;50.558;7.258;2022-10-31T06:35:20;11.30;99.90
23137;DHT22;11737;50.558;7.258;2022-10-31T06:37:54;11.30;99.90
23137;DHT22;11737;50.558;7.258;2022-10-31T06:40:22;11.40;99.90
23137;DHT22;11737;50.558;7.258;2022-10-31T06:42:58;11.40;99.90
23137;DHT22;11737;50.558;7.258;2022-10-31T06:45:26;11.50;99.90
23137;DHT22;11737;50.558;7.258;2022-10-31T06:47:55;11.60;99.90
23137;DHT22;11737;50.558;7.258;2022-10-31T06:50:23;11.60;99.90
23137;DHT22;11737;50.558;7.258;2022-10-31T06:52:55;11.70;99.90
23137;DHT22;11737;50.558;7.258;2022-10-31T06:55:24;11.70;99.90
23137;DHT22;11737;50.558;7.258;2022-10-31T06:57:53;11.80;99.90
23137;DHT22;11737;50.558;7.258;2022-10-31T07:00:22;11.90;99.90
23137;DHT22;11737;50.558;7.258;2022-10-31T07:03:01;11.90;99.90
23137;DHT22;11737;50.558;7.258;2022-10-31T07:05:30;12.00;99.90
23137;DHT22;11737;50.558;7.258;2022-10-31T07:08:00;12.10;99.90
23137;DHT22;11737;50.558;7.258;2022-10-31T07:10:31;12.10;99.90
23137;DHT22;11737;50.558;7.258;2022-10-31T07:13:01;12.20;99.90
23137;DHT22;11737;50.558;7.258;2022-10-31T07:18:17;12.30;99.90
23137;DHT22;11737;50.558;7.258;2022-10-31T07:20:44;12.40;99.90
23137;DHT22;11737;50.558;7.258;2022-10-31T07:23:12;12.50;99.90
23137;DHT22;11737;50.558;7.258;2022-10-31T07:25:40;12.60;99.90
23137;DHT22;11737;50.558;7.258;2022-10-31T07:28:09;12.60;99.90
23137;DHT22;11737;50.558;7.258;2022-10-31T07:30:38;12.60;99.90
23137;DHT22;11737;50.558;7.258;2022-10-31T07:33:06;12.60;99.90
23137;DHT22;11737;50.558;7.258;2022-10-31T07:35:33;12.70;99.90
23137;DHT22;11737;50.558;7.258;2022-10-31T07:38:10;12.70;99.90
23137;DHT22;11737;50.558;7.258;2022-10-31T07:40:39;12.80;99.90
23137;DHT22;11737;50.558;7.258;2022-10-31T07:43:06;12.90;99.90
23137;DHT22;11737;50.558;7.258;2022-10-31T07:45:34;12.90;99.90
23137;DHT22;11737;50.558;7.258;2022-10-31T07:48:01;13.00;99.90
23137;DHT22;11737;50.558;7.258;2022-10-31T07:50:31;13.00;99.90
23137;DHT22;11737;50.558;7.258;2022-10-31T07:53:07;13.10;99.90
23137;DHT22;11737;50.558;7.258;2022-10-31T07:55:30;13.10;99.90
23137;DHT22;11737;50.558;7.258;2022-10-31T07:58:02;13.20;99.90
23137;DHT22;11737;50.558;7.258;2022-10-31T08:00:31;13.20;99.90
23137;DHT22;11737;50.558;7.258;2022-10-31T08:03:06;13.20;99.90
23137;DHT22;11737;50.558;7.258;2022-10-31T08:05:34;13.30;99.90
23137;DHT22;11737;50.558;7.258;2022-10-31T08:08:03;13.30;99.90
23137;DHT22;11737;50.558;7.258;2022-10-31T08:10:31;13.40;99.90
23137;DHT22;11737;50.558;7.258;2022-10-31T08:13:02;13.40;99.90
23137;DHT22;11737;50.558;7.258;2022-10-31T08:15:30;13.50;99.90
23137;DHT22;11737;50.558;7.258;2022-10-31T08:17:58;13.60;99.90
23137;DHT22;11737;50.558;7.258;2022-10-31T08:20:25;13.60;99.90
23137;DHT22;11737;50.558;7.258;2022-10-31T08:22:59;13.70;99.90
23137;DHT22;11737;50.558;7.258;2022-10-31T08:25:23;13.80;99.90
23137;DHT22;11737;50.558;7.258;2022-10-31T08:27:52;13.90;99.90
23137;DHT22;11737;50.558;7.258;2022-10-31T08:30:22;14.00;99.90
23137;DHT22;11737;50.558;7.258;2022-10-31T08:33:09;14.10;99.90
23137;DHT22;11737;50.558;7.258;2022-10-31T08:35:37;14.20;99.90
23137;DHT22;11737;50.558;7.258;2022-10-31T08:38:05;14.30;99.90
23137;DHT22;11737;50.558;7.258;2022-10-31T08:40:34;14.40;99.90
23137;DHT22;11737;50.558;7.258;2022-10-31T08:43:10;14.40;99.90
23137;DHT22;11737;50.558;7.258;2022-10-31T08:45:33;14.50;99.90
23137;DHT22;11737;50.558;7.258;2022-10-31T08:48:03;14.60;99.90
23137;DHT22;11737;50.558;7.258;2022-10-31T08:50:33;14.70;99.90
23137;DHT22;11737;50.558;7.258;2022-10-31T08:53:12;14.70;99.90
23137;DHT22;11737;50.558;7.258;2022-10-31T08:55:41;14.80;99.90
23137;DHT22;11737;50.558;7.258;2022-10-31T08:58:14;14.90;99.90
23137;DHT22;11737;50.558;7.258;2022-10-31T09:00:42;15.00;99.90
23137;DHT22;11737;50.558;7.258;2022-10-31T09:03:12;15.10;99.90
23137;DHT22;11737;50.558;7.258;2022-10-31T09:05:41;15.20;99.90
23137;DHT22;11737;50.558;7.258;2022-10-31T09:08:08;15.30;99.90
23137;DHT22;11737;50.558;7.258;2022-10-31T09:10:36;15.40;99.90
23137;DHT22;11737;50.558;7.258;2022-10-31T09:13:07;15.40;99.90
23137;DHT22;11737;50.558;7.258;2022-10-31T09:15:37;15.50;99.90
23137;DHT22;11737;50.558;7.258;2022-10-31T09:18:06;15.60;99.90
23137;DHT22;11737;50.558;7.258;2022-10-31T09:20:35;15.70;99.90
23137;DHT22;11737;50.558;7.258;2022-10-31T09:23:06;15.80;99.90
23137;DHT22;11737;50.558;7.258;2022-10-31T09:25:34;15.80;99.90
23137;DHT22;11737;50.558;7.258;2022-10-31T09:28:04;15.90;99.90
23137;DHT22;11737;50.558;7.258;2022-10-31T09:30:33;15.90;99.90
23137;DHT22;11737;50.558;7.258;2022-10-31T09:33:12;16.00;99.90
23137;DHT22;11737;50.558;7.258;2022-10-31T09:35:40;16.00;99.90
23137;DHT22;11737;50.558;7.258;2022-10-31T09:38:13;16.00;99.90
23137;DHT22;11737;50.558;7.258;2022-10-31T09:40:52;16.10;99.90
23137;DHT22;11737;50.558;7.258;2022-10-31T09:43:32;16.10;99.90
23137;DHT22;11737;50.558;7.258;2022-10-31T09:46:46;16.10;99.90
23137;DHT22;11737;50.558;7.258;2022-10-31T09:48:37;16.10;99.90
23137;DHT22;11737;50.558;7.258;2022-10-31T09:56:23;16.10;99.90
23137;DHT22;11737;50.558;7.258;2022-10-31T09:58:57;16.10;99.90
23137;DHT22;11737;50.558;7.258;2022-10-31T10:01:39;16.10;99.90
23137;DHT22;11737;50.558;7.258;2022-10-31T10:06:53;16.20;99.90
23137;DHT22;11737;50.558;7.258;2022-10-31T10:09:24;16.20;99.90
23137;DHT22;11737;50.558;7.258;2022-10-31T10:12:01;16.30;99.90
23137;DHT22;11737;50.558;7.258;2022-10-31T10:14:45;16.30;99.90
23137;DHT22;11737;50.558;7.258;2022-10-31T10:17:23;16.40;99.90
23137;DHT22;11737;50.558;7.258;2022-10-31T10:20:01;16.50;99.90
23137;DHT22;11737;50.558;7.258;2022-10-31T10:22:50;16.60;99.90
23137;DHT22;11737;50.558;7.258;2022-10-31T10:25:26;16.70;99.90
23137;DHT22;11737;50.558;7.258;2022-10-31T10:28:02;16.90;99.90
23137;DHT22;11737;50.558;7.258;2022-10-31T10:30:39;17.00;99.90
23137;DHT22;11737;50.558;7.258;2022-10-31T10:33:20;17.10;99.90
23137;DHT22;11737;50.558;7.258;2022-10-31T10:35:59;17.30;99.90
23137;DHT22;11737;50.558;7.258;2022-10-31T10:38:39;17.40;99.90
23137;DHT22;11737;50.558;7.258;2022-10-31T10:41:15;17.40;99.90
23137;DHT22;11737;50.558;7.258;2022-10-31T10:43:43;17.50;99.90
23137;DHT22;11737;50.558;7.258;2022-10-31T10:46:42;17.50;99.90
23137;DHT22;11737;50.558;7.258;2022-10-31T10:49:54;17.60;99.90
23137;DHT22;11737;50.558;7.258;2022-10-31T10:52:32;17.60;99.90
23137;DHT22;11737;50.558;7.258;2022-10-31T10:57:57;17.80;99.90
23137;DHT22;11737;50.558;7.258;2022-10-31T11:03:02;17.90;99.90
23137;DHT22;11737;50.558;7.258;2022-10-31T11:08:07;18.00;99.90
23137;DHT22;11737;50.558;7.258;2022-10-31T11:10:35;18.10;99.90
23137;DHT22;11737;50.558;7.258;2022-10-31T11:15:57;18.20;99.90
23137;DHT22;11737;50.558;7.258;2022-10-31T11:18:30;18.30;99.90
23137;DHT22;11737;50.558;7.258;2022-10-31T11:21:00;18.40;99.90
23137;DHT22;11737;50.558;7.258;2022-10-31T11:23:29;18.50;99.90
23137;DHT22;11737;50.558;7.258;2022-10-31T11:28:29;18.60;99.90
23137;DHT22;11737;50.558;7.258;2022-10-31T11:31:07;18.70;99.90
23137;DHT22;11737;50.558;7.258;2022-10-31T11:33:49;18.80;99.90
23137;DHT22;11737;50.558;7.258;2022-10-31T11:36:23;18.80;99.90
23137;DHT22;11737;50.558;7.258;2022-10-31T11:38:51;18.90;99.90
23137;DHT22;11737;50.558;7.258;2022-10-31T11:41:31;18.90;99.90
23137;DHT22;11737;50.558;7.258;2022-10-31T11:44:27;19.00;99.90
23137;DHT22;11737;50.558;7.258;2022-10-31T11:46:40;19.00;99.90
23137;DHT22;11737;50.558;7.258;2022-10-31T11:49:33;19.00;99.90
23137;DHT22;11737;50.558;7.258;2022-10-31T11:52:04;19.00;99.90
23137;DHT22;11737;50.558;7.258;2022-10-31T11:57:29;19.10;99.90
23137;DHT22;11737;50.558;7.258;2022-10-31T11:59:59;19.10;99.90
23137;DHT22;11737;50.558;7.258;2022-10-31T12:02:27;19.20;99.90
23137;DHT22;11737;50.558;7.258;2022-10-31T12:05:12;19.20;99.90
23137;DHT22;11737;50.558;7.258;2022-10-31T12:07:37;19.30;99.90
23137;DHT22;11737;50.558;7.258;2022-10-31T12:10:11;19.30;99.90
23137;DHT22;11737;50.558;7.258;2022-10-31T12:15:33;19.40;99.90
23137;DHT22;11737;50.558;7.258;2022-10-31T12:24:26;19.50;99.90
23137;DHT22;11737;50.558;7.258;2022-10-31T12:35:48;19.60;99.90
23137;DHT22;11737;50.558;7.258;2022-10-31T12:38:38;19.60;99.90
23137;DHT22;11737;50.558;7.258;2022-10-31T12:41:22;19.50;99.90
23137;DHT22;11737;50.558;7.258;2022-10-31T12:55:29;19.50;99.90
23137;DHT22;11737;50.558;7.258;2022-10-31T12:57:53;19.40;99.90
23137;DHT22;11737;50.558;7.258;2022-10-31T13:00:21;19.40;99.90
23137;DHT22;11737;50.558;7.258;2022-10-31T13:03:01;19.40;99.90
23137;DHT22;11737;50.558;7.258;2022-10-31T13:05:33;19.40;99.90
23137;DHT22;11737;50.558;7.258;2022-10-31T13:08:14;19.40;99.90
23137;DHT22;11737;50.558;7.258;2022-10-31T13:10:39;19.40;99.90
23137;DHT22;11737;50.558;7.258;2022-10-31T13:13:10;19.50;99.90
23137;DHT22;11737;50.558;7.258;2022-10-31T13:15:50;19.60;99.90
23137;DHT22;11737;50.558;7.258;2022-10-31T13:18:29;19.70;99.90
23137;DHT22;11737;50.558;7.258;2022-10-31T13:20:52;19.80;99.90
23137;DHT22;11737;50.558;7.258;2022-10-31T13:23:28;19.80;99.90
23137;DHT22;11737;50.558;7.258;2022-10-31T13:25:58;19.90;99.90
23137;DHT22;11737;50.558;7.258;2022-10-31T13:28:46;20.00;99.90
23137;DHT22;11737;50.558;7.258;2022-10-31T13:31:13;20.00;99.90
23137;DHT22;11737;50.558;7.258;2022-10-31T13:33:52;20.00;99.90
23137;DHT22;11737;50.558;7.258;2022-10-31T13:41:48;19.80;99.90
23137;DHT22;11737;50.558;7.258;2022-10-31T13:44:27;19.80;99.90
23137;DHT22;11737;50.558;7.258;2022-10-31T13:46:56;19.60;99.90
23137;DHT22;11737;50.558;7.258;2022-10-31T13:52:13;19.40;99.90
23137;DHT22;11737;50.558;7.258;2022-10-31T13:54:43;19.30;99.90
23137;DHT22;11737;50.558;7.258;2022-10-31T13:57:19;19.30;99.90
23137;DHT22;11737;50.558;7.258;2022-10-31T14:02:45;19.10;99.90
23137;DHT22;11737;50.558;7.258;2022-10-31T14:08:18;19.00;99.90
23137;DHT22;11737;50.558;7.258;2022-10-31T14:10:48;19.10;99.90
23137;DHT22;11737;50.558;7.258;2022-10-31T14:13:20;19.10;99.90
23137;DHT22;11737;50.558;7.258;2022-10-31T14:18:43;19.10;99.90
23137;DHT22;11737;50.558;7.258;2022-10-31T14:29:53;19.40;99.90
23137;DHT22;11737;50.558;7.258;2022-10-31T14:32:23;19.50;99.90
23137;DHT22;11737;50.558;7.258;2022-10-31T14:34:53;19.70;99.90
23137;DHT22;11737;50.558;7.258;2022-10-31T14:37:32;19.80;99.90
23137;DHT22;11737;50.558;7.258;2022-10-31T14:40:27;20.00;99.90
23137;DHT22;11737;50.558;7.258;2022-10-31T14:46:05;20.20;99.90
23137;DHT22;11737;50.558;7.258;2022-10-31T14:51:23;20.30;99.90
23137;DHT22;11737;50.558;7.258;2022-10-31T14:53:57;20.30;99.90
23137;DHT22;11737;50.558;7.258;2022-10-31T14:56:27;20.30;99.90
23137;DHT22;11737;50.558;7.258;2022-10-31T14:58:57;20.20;99.90
23137;DHT22;11737;50.558;7.258;2022-10-31T15:01:28;20.20;99.90
23137;DHT22;11737;50.558;7.258;2022-10-31T15:04:17;20.20;99.90
23137;DHT22;11737;50.558;7.258;2022-10-31T15:06:47;20.20;99.90
23137;DHT22;11737;50.558;7.258;2022-10-31T15:09:35;20.20;99.90
23137;DHT22;11737;50.558;7.258;2022-10-31T15:12:27;20.10;99.90
23137;DHT22;11737;50.558;7.258;2022-10-31T15:14:55;20.10;99.90
23137;DHT22;11737;50.558;7.258;2022-10-31T15:17:25;19.90;99.90
23137;DHT22;11737;50.558;7.258;2022-10-31T15:19:53;19.80;99.90
23137;DHT22;11737;50.558;7.258;2022-10-31T15:22:31;19.70;99.90
23137;DHT22;11737;50.558;7.258;2022-10-31T15:24:54;19.60;99.90
23137;DHT22;11737;50.558;7.258;2022-10-31T15:27:23;19.50;99.90
23137;DHT22;11737;50.558;7.258;2022-10-31T15:29:54;19.40;99.90
23137;DHT22;11737;50.558;7.258;2022-10-31T15:32:29;19.20;99.90
23137;DHT22;11737;50.558;7.258;2022-10-31T15:34:57;19.00;99.90
23137;DHT22;11737;50.558;7.258;2022-10-31T15:37:26;18.80;99.90
23137;DHT22;11737;50.558;7.258;2022-10-31T15:39:53;18.70;99.90
23137;DHT22;11737;50.558;7.258;2022-10-31T15:42:30;18.50;99.90
23137;DHT22;11737;50.558;7.258;2022-10-31T15:45:18;18.40;99.90
23137;DHT22;11737;50.558;7.258;2022-10-31T15:47:54;18.20;99.90
23137;DHT22;11737;50.558;7.258;2022-10-31T15:50:28;18.10;99.90
23137;DHT22;11737;50.558;7.258;2022-10-31T15:52:56;18.00;99.90
23137;DHT22;11737;50.558;7.258;2022-10-31T15:55:29;17.90;99.90
23137;DHT22;11737;50.558;7.258;2022-10-31T15:58:03;17.70;99.90
23137;DHT22;11737;50.558;7.258;2022-10-31T16:00:34;17.60;99.90
23137;DHT22;11737;50.558;7.258;2022-10-31T16:05:51;17.30;99.90
23137;DHT22;11737;50.558;7.258;2022-10-31T16:13:52;17.00;99.90
23137;DHT22;11737;50.558;7.258;2022-10-31T16:16:15;17.00;99.90
23137;DHT22;11737;50.558;7.258;2022-10-31T16:18:44;16.90;99.90
23137;DHT22;11737;50.558;7.258;2022-10-31T16:21:12;16.80;99.90
23137;DHT22;11737;50.558;7.258;2022-10-31T16:23:44;16.80;99.90
23137;DHT22;11737;50.558;7.258;2022-10-31T16:26:16;16.80;99.90
23137;DHT22;11737;50.558;7.258;2022-10-31T16:28:51;16.70;99.90
23137;DHT22;11737;50.558;7.258;2022-10-31T16:31:28;16.60;99.90
23137;DHT22;11737;50.558;7.258;2022-10-31T16:34:12;16.40;99.90
23137;DHT22;11737;50.558;7.258;2022-10-31T16:36:34;16.30;99.90
23137;DHT22;11737;50.558;7.258;2022-10-31T16:39:06;16.20;99.90
23137;DHT22;11737;50.558;7.258;2022-10-31T16:41:38;16.10;99.90
23137;DHT22;11737;50.558;7.258;2022-10-31T16:44:25;16.10;99.90
23137;DHT22;11737;50.558;7.258;2022-10-31T16:47:07;16.00;99.90
23137;DHT22;11737;50.558;7.258;2022-10-31T16:49:35;15.90;99.90
23137;DHT22;11737;50.558;7.258;2022-10-31T16:52:03;15.80;99.90
23137;DHT22;11737;50.558;7.258;2022-10-31T16:54:30;15.70;99.90
23137;DHT22;11737;50.558;7.258;2022-10-31T16:56:59;15.60;99.90
23137;DHT22;11737;50.558;7.258;2022-10-31T16:59:27;15.60;99.90
23137;DHT22;11737;50.558;7.258;2022-10-31T17:01:55;15.50;99.90
23137;DHT22;11737;50.558;7.258;2022-10-31T17:04:22;15.40;99.90
23137;DHT22;11737;50.558;7.258;2022-10-31T17:06:50;15.30;99.90
23137;DHT22;11737;50.558;7.258;2022-10-31T17:09:37;15.30;99.90
23137;DHT22;11737;50.558;7.258;2022-10-31T17:12:06;15.20;99.90
23137;DHT22;11737;50.558;7.258;2022-10-31T17:14:36;15.20;99.90
23137;DHT22;11737;50.558;7.258;2022-10-31T17:17:04;15.10;99.90
23137;DHT22;11737;50.558;7.258;2022-10-31T17:19:32;15.10;99.90
23137;DHT22;11737;50.558;7.258;2022-10-31T17:22:01;15.10;99.90
23137;DHT22;11737;50.558;7.258;2022-10-31T17:24:29;15.10;99.90
23137;DHT22;11737;50.558;7.258;2022-10-31T17:26:56;15.00;99.90
23137;DHT22;11737;50.558;7.258;2022-10-31T17:29:24;14.90;99.90
23137;DHT22;11737;50.558;7.258;2022-10-31T17:31:51;14.90;99.90
23137;DHT22;11737;50.558;7.258;2022-10-31T17:34:19;14.80;99.90
23137;DHT22;11737;50.558;7.258;2022-10-31T17:36:50;14.70;99.90
23137;DHT22;11737;50.558;7.258;2022-10-31T17:39:19;14.60;99.90
23137;DHT22;11737;50.558;7.258;2022-10-31T17:41:50;14.60;99.90
23137;DHT22;11737;50.558;7.258;2022-10-31T17:44:18;14.60;99.90
23137;DHT22;11737;50.558;7.258;2022-10-31T17:46:46;14.50;99.90
23137;DHT22;11737;50.558;7.258;2022-10-31T17:49:14;14.60;99.90
23137;DHT22;11737;50.558;7.258;2022-10-31T17:51:41;14.50;99.90
23137;DHT22;11737;50.558;7.258;2022-10-31T17:54:09;14.50;99.90
23137;DHT22;11737;50.558;7.258;2022-10-31T17:56:37;14.50;99.90
23137;DHT22;11737;50.558;7.258;2022-10-31T17:59:04;14.40;99.90